createdAt,value
2017-01-05T00:00:05.717Z,1005.58
2017-01-05T00:01:16.606Z,1005.61
2017-01-05T00:02:27.932Z,1005.59
2017-01-05T00:03:39.325Z,1005.56
2017-01-05T00:04:50.246Z,1005.61
2017-01-05T00:06:01.135Z,1005.63
2017-01-05T00:07:12.028Z,1005.63
2017-01-05T00:08:23.345Z,1005.64
2017-01-05T00:09:34.715Z,1005.66
2017-01-05T00:10:46.035Z,1005.74
2017-01-05T00:11:57.352Z,1005.77
2017-01-05T00:13:08.242Z,1005.72
2017-01-05T00:14:19.571Z,1005.83
2017-01-05T00:15:30.940Z,1005.82
2017-01-05T00:16:42.261Z,1005.85
2017-01-05T00:17:53.151Z,1005.87
2017-01-05T00:19:04.043Z,1005.86
2017-01-05T00:20:14.929Z,1005.81
2017-01-05T00:21:25.870Z,1005.88
2017-01-05T00:22:37.183Z,1005.89
2017-01-05T00:23:48.076Z,1005.93
2017-01-05T00:24:59.394Z,1005.94
2017-01-05T00:26:10.746Z,1006
2017-01-05T00:27:22.128Z,1006.01
2017-01-05T00:28:33.441Z,1006.09
2017-01-05T00:29:44.758Z,1006.02
2017-01-05T00:30:56.083Z,1006.06
2017-01-05T00:32:06.972Z,1006.04
2017-01-05T00:33:18.337Z,1006.03
2017-01-05T00:34:29.659Z,1006.11
2017-01-05T00:35:40.973Z,1006.2
2017-01-05T00:36:51.869Z,1006.18
2017-01-05T00:38:03.187Z,1006.23
2017-01-05T00:39:14.563Z,1006.23
2017-01-05T00:40:25.889Z,1006.26
2017-01-05T00:41:36.782Z,1006.23
2017-01-05T00:42:48.107Z,1006.36
2017-01-05T00:43:59.424Z,1006.38
2017-01-05T00:45:10.369Z,1006.31
2017-01-05T00:46:21.686Z,1006.43
2017-01-05T00:47:32.608Z,1006.4
2017-01-05T00:48:43.504Z,1006.42
2017-01-05T00:49:54.822Z,1006.39
2017-01-05T00:51:06.191Z,1006.45
2017-01-05T00:52:17.088Z,1006.45
2017-01-05T00:53:28.421Z,1006.47
2017-01-05T00:54:39.738Z,1006.44
2017-01-05T00:55:50.196Z,1006.5
2017-01-05T00:57:01.145Z,1006.56
2017-01-05T00:58:12.466Z,1006.54
2017-01-05T00:59:23.807Z,1006.59
2017-01-05T01:00:35.120Z,1006.62
2017-01-05T01:01:46.445Z,1006.74
2017-01-05T01:02:56.958Z,1006.72
2017-01-05T01:04:07.855Z,1006.73
2017-01-05T01:05:18.749Z,1006.7
2017-01-05T01:06:30.069Z,1006.69
2017-01-05T01:07:40.966Z,1006.74
2017-01-05T01:08:51.904Z,1006.79
2017-01-05T01:10:02.793Z,1006.78
2017-01-05T01:11:13.690Z,1006.78
2017-01-05T01:12:25.015Z,1006.81
2017-01-05T01:13:36.340Z,1006.79
2017-01-05T01:14:47.705Z,1006.81
2017-01-05T01:15:58.598Z,1006.84
2017-01-05T01:17:09.919Z,1006.86
2017-01-05T01:18:21.240Z,1006.9
2017-01-05T01:19:32.134Z,1006.89
2017-01-05T01:20:43.079Z,1006.9
2017-01-05T01:21:54.400Z,1006.93
2017-01-05T01:23:05.285Z,1006.92
2017-01-05T01:24:16.638Z,1006.97
2017-01-05T01:25:27.531Z,1007.04
2017-01-05T01:26:38.480Z,1007.01
2017-01-05T01:27:49.801Z,1007.05
2017-01-05T01:29:01.126Z,1007.08
2017-01-05T01:30:12.475Z,1007.09
2017-01-05T01:31:23.793Z,1007.16
2017-01-05T01:32:35.174Z,1007.18
2017-01-05T01:33:46.063Z,1007.15
2017-01-05T01:34:57.384Z,1007.24
2017-01-05T01:36:08.269Z,1007.23
2017-01-05T01:37:19.594Z,1007.29
2017-01-05T01:38:30.967Z,1007.3
2017-01-05T01:39:41.860Z,1007.36
2017-01-05T01:40:53.178Z,1007.38
2017-01-05T01:42:04.075Z,1007.37
2017-01-05T01:43:14.969Z,1007.42
2017-01-05T01:44:26.333Z,1007.45
2017-01-05T01:45:37.235Z,1007.46
2017-01-05T01:46:48.140Z,1007.46
2017-01-05T01:47:59.457Z,1007.42
2017-01-05T01:49:10.354Z,1007.53
2017-01-05T01:50:21.735Z,1007.54
2017-01-05T01:51:32.656Z,1007.55
2017-01-05T01:52:43.982Z,1007.6
2017-01-05T01:53:55.332Z,1007.65
2017-01-05T01:55:06.656Z,1007.64
2017-01-05T01:56:17.597Z,1007.61
2017-01-05T01:57:28.482Z,1007.65
2017-01-05T01:58:38.943Z,1007.64
2017-01-05T01:59:50.269Z,1007.65
2017-01-05T02:01:01.166Z,1007.63
2017-01-05T02:02:12.607Z,1007.68
2017-01-05T02:03:23.924Z,1007.67
2017-01-05T02:04:35.281Z,1007.66
2017-01-05T02:05:46.179Z,1007.73
2017-01-05T02:06:57.500Z,1007.69
2017-01-05T02:08:08.869Z,1007.69
2017-01-05T02:09:20.186Z,1007.73
2017-01-05T02:10:31.503Z,1007.73
2017-01-05T02:11:42.424Z,1007.74
2017-01-05T02:12:53.321Z,1007.79
2017-01-05T02:14:04.695Z,1007.8
2017-01-05T02:15:16.016Z,1007.79
2017-01-05T02:16:27.369Z,1007.81
2017-01-05T02:17:38.263Z,1007.83
2017-01-05T02:18:49.583Z,1007.9
2017-01-05T02:20:00.953Z,1007.87
2017-01-05T02:21:12.278Z,1007.91
2017-01-05T02:22:23.175Z,1007.93
2017-01-05T02:23:34.496Z,1007.93
2017-01-05T02:24:45.397Z,1007.93
2017-01-05T02:25:56.343Z,1007.95
2017-01-05T02:27:07.668Z,1007.97
2017-01-05T02:28:18.997Z,1007.95
2017-01-05T02:29:29.894Z,1008
2017-01-05T02:30:41.211Z,1008.07
2017-01-05T02:31:52.585Z,1008.09
2017-01-05T02:33:03.486Z,1008.17
2017-01-05T02:34:14.807Z,1008.09
2017-01-05T02:35:26.128Z,1008.1
2017-01-05T02:36:37.026Z,1008.19
2017-01-05T02:37:48.391Z,1008.19
2017-01-05T02:38:59.280Z,1008.19
2017-01-05T02:40:10.169Z,1008.22
2017-01-05T02:41:21.066Z,1008.26
2017-01-05T02:42:31.964Z,1008.28
2017-01-05T02:43:43.325Z,1008.25
2017-01-05T02:44:54.218Z,1008.29
2017-01-05T02:46:05.544Z,1008.29
2017-01-05T02:47:16.868Z,1008.29
2017-01-05T02:48:27.762Z,1008.3
2017-01-05T02:49:39.155Z,1008.36
2017-01-05T02:50:50.476Z,1008.42
2017-01-05T02:52:01.797Z,1008.43
2017-01-05T02:53:12.686Z,1008.45
2017-01-05T02:54:23.576Z,1008.42
2017-01-05T02:55:34.517Z,1008.46
2017-01-05T02:56:45.842Z,1008.5
2017-01-05T02:57:56.747Z,1008.52
2017-01-05T02:59:07.640Z,1008.53
2017-01-05T03:00:18.538Z,1008.5
2017-01-05T03:01:29.915Z,1008.58
2017-01-05T03:02:40.816Z,1008.57
2017-01-05T03:03:51.709Z,1008.62
2017-01-05T03:05:03.034Z,1008.64
2017-01-05T03:06:13.927Z,1008.72
2017-01-05T03:07:25.297Z,1008.78
2017-01-05T03:08:36.194Z,1008.82
2017-01-05T03:09:47.511Z,1008.85
2017-01-05T03:10:58.837Z,1008.83
2017-01-05T03:12:10.158Z,1008.85
2017-01-05T03:13:21.531Z,1008.86
2017-01-05T03:14:31.564Z,1008.86
2017-01-05T03:15:42.885Z,1008.87
2017-01-05T03:16:54.214Z,1008.97
2017-01-05T03:18:05.531Z,1008.98
2017-01-05T03:19:16.473Z,1008.99
2017-01-05T03:20:27.798Z,1009.01
2017-01-05T03:21:38.259Z,1009.01
2017-01-05T03:22:49.153Z,1009.04
2017-01-05T03:23:59.618Z,1009.06
2017-01-05T03:25:10.687Z,1009.11
2017-01-05T03:26:22.008Z,1009.1
2017-01-05T03:27:33.325Z,1009.13
2017-01-05T03:28:44.642Z,1009.14
2017-01-05T03:29:55.532Z,1009.17
2017-01-05T03:31:06.465Z,1009.13
2017-01-05T03:32:17.359Z,1009.18
2017-01-05T03:33:28.683Z,1009.19
2017-01-05T03:34:39.997Z,1009.19
2017-01-05T03:35:50.890Z,1009.24
2017-01-05T03:37:02.251Z,1009.3
2017-01-05T03:38:13.156Z,1009.35
2017-01-05T03:39:24.478Z,1009.34
2017-01-05T03:40:35.404Z,1009.38
2017-01-05T03:41:46.720Z,1009.36
2017-01-05T03:42:58.093Z,1009.45
2017-01-05T03:44:09.010Z,1009.52
2017-01-05T03:45:19.907Z,1009.48
2017-01-05T03:46:31.237Z,1009.54
2017-01-05T03:47:42.570Z,1009.58
2017-01-05T03:48:53.943Z,1009.62
2017-01-05T03:50:04.833Z,1009.62
2017-01-05T03:51:16.162Z,1009.7
2017-01-05T03:52:27.479Z,1009.77
2017-01-05T03:53:38.368Z,1009.73
2017-01-05T03:54:49.313Z,1009.72
2017-01-05T03:56:00.639Z,1009.78
2017-01-05T03:57:11.964Z,1009.82
2017-01-05T03:58:23.290Z,1009.82
2017-01-05T03:59:34.190Z,1009.86
2017-01-05T04:00:45.140Z,1009.9
2017-01-05T04:01:56.036Z,1009.89
2017-01-05T04:03:07.358Z,1009.9
2017-01-05T04:04:18.687Z,1009.92
2017-01-05T04:05:30.004Z,1009.93
2017-01-05T04:06:40.958Z,1009.92
2017-01-05T04:07:51.855Z,1009.95
2017-01-05T04:09:03.181Z,1009.98
2017-01-05T04:10:14.513Z,1010.02
2017-01-05T04:11:25.830Z,1010.06
2017-01-05T04:12:37.208Z,1010.06
2017-01-05T04:13:48.521Z,1010.09
2017-01-05T04:14:59.410Z,1010.17
2017-01-05T04:16:10.307Z,1010.15
2017-01-05T04:17:21.201Z,1010.21
2017-01-05T04:18:32.157Z,1010.23
2017-01-05T04:19:43.483Z,1010.21
2017-01-05T04:20:53.936Z,1010.26
2017-01-05T04:22:04.829Z,1010.33
2017-01-05T04:23:16.154Z,1010.38
2017-01-05T04:24:27.095Z,1010.4
2017-01-05T04:25:38.002Z,1010.44
2017-01-05T04:26:48.902Z,1010.49
2017-01-05T04:27:59.795Z,1010.49
2017-01-05T04:29:11.112Z,1010.47
2017-01-05T04:30:22.153Z,1010.53
2017-01-05T04:31:33.471Z,1010.6
2017-01-05T04:32:44.368Z,1010.55
2017-01-05T04:33:55.689Z,1010.62
2017-01-05T04:35:07.014Z,1010.59
2017-01-05T04:36:17.960Z,1010.6
2017-01-05T04:37:29.277Z,1010.61
2017-01-05T04:38:40.594Z,1010.61
2017-01-05T04:39:51.495Z,1010.63
2017-01-05T04:41:02.388Z,1010.61
2017-01-05T04:42:13.341Z,1010.59
2017-01-05T04:43:24.247Z,1010.64
2017-01-05T04:44:35.565Z,1010.65
2017-01-05T04:45:46.453Z,1010.71
2017-01-05T04:46:57.762Z,1010.73
2017-01-05T04:48:08.695Z,1010.72
2017-01-05T04:49:20.016Z,1010.74
2017-01-05T04:50:31.333Z,1010.75
2017-01-05T04:51:41.807Z,1010.81
2017-01-05T04:52:53.148Z,1010.77
2017-01-05T04:54:04.513Z,1010.87
2017-01-05T04:55:15.831Z,1010.88
2017-01-05T04:56:27.152Z,1010.9
2017-01-05T04:57:38.469Z,1010.89
2017-01-05T04:58:49.366Z,1010.86
2017-01-05T05:00:00.299Z,1010.93
2017-01-05T05:01:11.196Z,1010.92
2017-01-05T05:02:22.514Z,1010.95
2017-01-05T05:03:33.835Z,1010.96
2017-01-05T05:04:45.186Z,1010.95
2017-01-05T05:05:56.133Z,1011.03
2017-01-05T05:07:07.038Z,1011.04
2017-01-05T05:08:18.359Z,1011.09
2017-01-05T05:09:29.249Z,1011.1
2017-01-05T05:10:40.574Z,1011.13
2017-01-05T05:11:51.519Z,1011.12
2017-01-05T05:13:02.424Z,1011.15
2017-01-05T05:14:13.741Z,1011.18
2017-01-05T05:15:25.063Z,1011.21
2017-01-05T05:16:35.959Z,1011.2
2017-01-05T05:17:47.330Z,1011.25
2017-01-05T05:18:58.654Z,1011.22
2017-01-05T05:20:09.547Z,1011.27
2017-01-05T05:21:20.869Z,1011.32
2017-01-05T05:22:31.758Z,1011.35
2017-01-05T05:23:42.699Z,1011.4
2017-01-05T05:24:52.728Z,1011.41
2017-01-05T05:26:04.069Z,1011.43
2017-01-05T05:27:14.966Z,1011.43
2017-01-05T05:28:26.292Z,1011.45
2017-01-05T05:29:37.233Z,1011.45
2017-01-05T05:30:48.550Z,1011.47
2017-01-05T05:31:59.863Z,1011.48
2017-01-05T05:33:10.768Z,1011.55
2017-01-05T05:34:21.661Z,1011.53
2017-01-05T05:35:32.599Z,1011.55
2017-01-05T05:36:43.924Z,1011.58
2017-01-05T05:37:54.845Z,1011.61
2017-01-05T05:39:05.730Z,1011.6
2017-01-05T05:40:17.060Z,1011.64
2017-01-05T05:41:28.433Z,1011.69
2017-01-05T05:42:39.330Z,1011.66
2017-01-05T05:43:50.651Z,1011.7
2017-01-05T05:45:01.968Z,1011.72
2017-01-05T05:46:13.293Z,1011.83
2017-01-05T05:47:24.671Z,1011.83
2017-01-05T05:48:36.020Z,1011.89
2017-01-05T05:49:47.333Z,1011.94
2017-01-05T05:50:58.226Z,1011.97
2017-01-05T05:52:09.547Z,1012.01
2017-01-05T05:53:20.060Z,1012.01
2017-01-05T05:54:31.398Z,1012.04
2017-01-05T05:55:42.715Z,1012.02
2017-01-05T05:56:53.176Z,1012.01
2017-01-05T05:58:04.501Z,1012.08
2017-01-05T05:59:15.874Z,1012.04
2017-01-05T06:00:26.776Z,1012.11
2017-01-05T06:01:37.670Z,1012.14
2017-01-05T06:02:48.998Z,1012.18
2017-01-05T06:03:59.899Z,1012.16
2017-01-05T06:05:10.842Z,1012.18
2017-01-05T06:06:21.737Z,1012.15
2017-01-05T06:07:32.662Z,1012.12
2017-01-05T06:08:43.568Z,1012.18
2017-01-05T06:09:54.465Z,1012.17
2017-01-05T06:11:05.834Z,1012.22
2017-01-05T06:12:17.155Z,1012.28
2017-01-05T06:13:28.488Z,1012.22
2017-01-05T06:14:39.377Z,1012.32
2017-01-05T06:15:49.830Z,1012.31
2017-01-05T06:17:01.203Z,1012.36
2017-01-05T06:18:12.527Z,1012.35
2017-01-05T06:19:23.845Z,1012.4
2017-01-05T06:20:35.162Z,1012.39
2017-01-05T06:21:46.479Z,1012.47
2017-01-05T06:22:57.863Z,1012.49
2017-01-05T06:24:08.760Z,1012.51
2017-01-05T06:25:20.078Z,1012.5
2017-01-05T06:26:30.978Z,1012.5
2017-01-05T06:27:42.297Z,1012.55
2017-01-05T06:28:53.669Z,1012.58
2017-01-05T06:30:04.562Z,1012.61
2017-01-05T06:31:15.883Z,1012.67
2017-01-05T06:32:26.340Z,1012.63
2017-01-05T06:33:37.657Z,1012.7
2017-01-05T06:34:48.658Z,1012.7
2017-01-05T06:35:59.971Z,1012.75
2017-01-05T06:37:11.308Z,1012.8
2017-01-05T06:38:22.658Z,1012.84
2017-01-05T06:39:33.971Z,1012.83
2017-01-05T06:40:44.904Z,1012.9
2017-01-05T06:41:55.805Z,1012.92
2017-01-05T06:43:06.694Z,1012.93
2017-01-05T06:44:18.039Z,1013.05
2017-01-05T06:45:29.361Z,1013.05
2017-01-05T06:46:40.734Z,1013.06
2017-01-05T06:47:51.651Z,1013.1
2017-01-05T06:49:02.552Z,1013.17
2017-01-05T06:50:13.874Z,1013.17
2017-01-05T06:51:25.198Z,1013.21
2017-01-05T06:52:36.155Z,1013.29
2017-01-05T06:53:47.472Z,1013.29
2017-01-05T06:54:58.374Z,1013.33
2017-01-05T06:56:09.263Z,1013.4
2017-01-05T06:57:20.592Z,1013.46
2017-01-05T06:58:31.961Z,1013.45
2017-01-05T06:59:42.854Z,1013.52
2017-01-05T07:00:54.171Z,1013.56
2017-01-05T07:02:05.492Z,1013.55
2017-01-05T07:03:16.389Z,1013.57
2017-01-05T07:04:27.759Z,1013.56
2017-01-05T07:05:38.216Z,1013.63
2017-01-05T07:06:49.537Z,1013.66
2017-01-05T07:08:00.426Z,1013.68
2017-01-05T07:09:11.747Z,1013.68
2017-01-05T07:10:23.317Z,1013.68
2017-01-05T07:11:34.638Z,1013.72
2017-01-05T07:12:45.955Z,1013.71
2017-01-05T07:13:57.280Z,1013.72
2017-01-05T07:15:08.601Z,1013.71
2017-01-05T07:16:19.999Z,1013.74
2017-01-05T07:17:31.324Z,1013.78
2017-01-05T07:18:42.226Z,1013.77
2017-01-05T07:19:53.543Z,1013.84
2017-01-05T07:21:04.443Z,1013.82
2017-01-05T07:22:15.917Z,1013.87
2017-01-05T07:23:27.239Z,1013.85
2017-01-05T07:24:38.128Z,1013.9
2017-01-05T07:25:49.453Z,1013.97
2017-01-05T07:27:00.774Z,1014.02
2017-01-05T07:28:11.727Z,1014.06
2017-01-05T07:29:23.044Z,1014.1
2017-01-05T07:30:34.370Z,1014.06
2017-01-05T07:31:45.698Z,1014.1
2017-01-05T07:32:56.600Z,1014.13
2017-01-05T07:34:07.969Z,1014.16
2017-01-05T07:35:19.290Z,1014.08
2017-01-05T07:36:30.188Z,1014.15
2017-01-05T07:37:41.540Z,1014.21
2017-01-05T07:38:52.434Z,1014.16
2017-01-05T07:40:03.803Z,1014.24
2017-01-05T07:41:14.700Z,1014.23
2017-01-05T07:42:25.594Z,1014.26
2017-01-05T07:43:36.939Z,1014.33
2017-01-05T07:44:48.260Z,1014.36
2017-01-05T07:45:59.197Z,1014.34
2017-01-05T07:47:10.519Z,1014.33
2017-01-05T07:48:21.416Z,1014.38
2017-01-05T07:49:32.313Z,1014.39
2017-01-05T07:50:43.646Z,1014.44
2017-01-05T07:51:55.024Z,1014.44
2017-01-05T07:53:05.913Z,1014.42
2017-01-05T07:54:17.234Z,1014.46
2017-01-05T07:55:28.563Z,1014.45
2017-01-05T07:56:39.913Z,1014.46
2017-01-05T07:57:51.282Z,1014.53
2017-01-05T07:59:02.595Z,1014.53
2017-01-05T08:00:13.912Z,1014.55
2017-01-05T08:01:25.230Z,1014.54
2017-01-05T08:02:36.119Z,1014.56
2017-01-05T08:03:47.057Z,1014.59
2017-01-05T08:04:58.373Z,1014.62
2017-01-05T08:06:09.267Z,1014.59
2017-01-05T08:07:20.600Z,1014.64
2017-01-05T08:08:31.950Z,1014.64
2017-01-05T08:09:43.322Z,1014.7
2017-01-05T08:10:53.787Z,1014.73
2017-01-05T08:12:05.106Z,1014.76
2017-01-05T08:13:16.422Z,1014.78
2017-01-05T08:14:27.355Z,1014.75
2017-01-05T08:15:38.726Z,1014.81
2017-01-05T08:16:49.618Z,1014.85
2017-01-05T08:18:00.515Z,1014.85
2017-01-05T08:19:11.420Z,1014.94
2017-01-05T08:20:22.314Z,1014.91
2017-01-05T08:21:33.785Z,1014.95
2017-01-05T08:22:44.676Z,1014.93
2017-01-05T08:23:56.002Z,1015.01
2017-01-05T08:25:06.898Z,1015.04
2017-01-05T08:26:17.788Z,1015.06
2017-01-05T08:27:29.208Z,1015.07
2017-01-05T08:28:40.098Z,1015.11
2017-01-05T08:29:51.419Z,1015.11
2017-01-05T08:31:02.781Z,1015.17
2017-01-05T08:32:14.102Z,1015.18
2017-01-05T08:33:25.467Z,1015.22
2017-01-05T08:34:36.800Z,1015.23
2017-01-05T08:35:48.117Z,1015.25
2017-01-05T08:36:59.443Z,1015.35
2017-01-05T08:38:10.335Z,1015.31
2017-01-05T08:39:21.705Z,1015.34
2017-01-05T08:40:33.034Z,1015.39
2017-01-05T08:41:44.352Z,1015.37
2017-01-05T08:42:55.673Z,1015.39
2017-01-05T08:44:06.574Z,1015.41
2017-01-05T08:45:17.531Z,1015.43
2017-01-05T08:46:28.880Z,1015.44
2017-01-05T08:47:39.778Z,1015.49
2017-01-05T08:48:51.103Z,1015.49
2017-01-05T08:50:02.428Z,1015.55
2017-01-05T08:51:13.369Z,1015.6
2017-01-05T08:52:24.691Z,1015.62
2017-01-05T08:53:36.012Z,1015.65
2017-01-05T08:54:46.909Z,1015.76
2017-01-05T08:55:57.802Z,1015.83
2017-01-05T08:57:08.747Z,1015.83
2017-01-05T08:58:20.065Z,1015.87
2017-01-05T08:59:31.386Z,1015.92
2017-01-05T09:00:42.707Z,1015.98
2017-01-05T09:01:53.600Z,1015.99
2017-01-05T09:03:04.543Z,1016.05
2017-01-05T09:04:15.871Z,1016.07
2017-01-05T09:05:27.198Z,1016.14
2017-01-05T09:06:38.526Z,1016.14
2017-01-05T09:07:49.419Z,1016.22
2017-01-05T09:09:00.787Z,1016.21
2017-01-05T09:10:11.682Z,1016.17
2017-01-05T09:11:22.998Z,1016.26
2017-01-05T09:12:34.320Z,1016.26
2017-01-05T09:13:45.213Z,1016.31
2017-01-05T09:14:56.346Z,1016.32
2017-01-05T09:16:07.707Z,1016.37
2017-01-05T09:17:18.628Z,1016.37
2017-01-05T09:18:29.945Z,1016.38
2017-01-05T09:19:41.263Z,1016.41
2017-01-05T09:20:52.632Z,1016.45
2017-01-05T09:22:03.953Z,1016.51
2017-01-05T09:23:15.271Z,1016.54
2017-01-05T09:24:26.170Z,1016.51
2017-01-05T09:25:36.629Z,1016.52
2017-01-05T09:26:48.002Z,1016.54
2017-01-05T09:27:59.327Z,1016.62
2017-01-05T09:29:10.233Z,1016.61
2017-01-05T09:30:21.554Z,1016.6
2017-01-05T09:31:32.879Z,1016.66
2017-01-05T09:32:43.824Z,1016.64
2017-01-05T09:33:55.141Z,1016.68
2017-01-05T09:35:06.034Z,1016.72
2017-01-05T09:36:17.356Z,1016.77
2017-01-05T09:37:28.673Z,1016.75
2017-01-05T09:38:39.614Z,1016.8
2017-01-05T09:39:50.943Z,1016.82
2017-01-05T09:41:01.836Z,1016.86
2017-01-05T09:42:13.165Z,1016.87
2017-01-05T09:43:24.483Z,1016.92
2017-01-05T09:44:35.860Z,1016.93
2017-01-05T09:45:46.753Z,1016.97
2017-01-05T09:46:57.646Z,1017.02
2017-01-05T09:48:08.547Z,1017.06
2017-01-05T09:49:19.869Z,1017.1
2017-01-05T09:50:31.237Z,1017.08
2017-01-05T09:51:42.123Z,1017.12
2017-01-05T09:52:53.452Z,1017.15
2017-01-05T09:54:04.769Z,1017.15
2017-01-05T09:55:15.680Z,1017.17
2017-01-05T09:56:27.048Z,1017.2
2017-01-05T09:57:38.365Z,1017.21
2017-01-05T09:58:49.258Z,1017.27
2017-01-05T10:00:00.580Z,1017.29
2017-01-05T10:01:11.481Z,1017.28
2017-01-05T10:02:22.426Z,1017.3
2017-01-05T10:03:33.755Z,1017.33
2017-01-05T10:04:45.076Z,1017.41
2017-01-05T10:05:55.974Z,1017.4
2017-01-05T10:07:07.291Z,1017.45
2017-01-05T10:08:18.668Z,1017.45
2017-01-05T10:09:29.981Z,1017.5
2017-01-05T10:10:40.875Z,1017.43
2017-01-05T10:11:51.796Z,1017.48
2017-01-05T10:13:03.113Z,1017.48
2017-01-05T10:14:14.478Z,1017.54
2017-01-05T10:15:25.367Z,1017.53
2017-01-05T10:16:36.689Z,1017.61
2017-01-05T10:17:48.005Z,1017.54
2017-01-05T10:18:58.487Z,1017.58
2017-01-05T10:20:09.856Z,1017.59
2017-01-05T10:21:21.177Z,1017.59
2017-01-05T10:22:32.071Z,1017.57
2017-01-05T10:23:42.967Z,1017.62
2017-01-05T10:24:53.860Z,1017.59
2017-01-05T10:26:05.234Z,1017.61
2017-01-05T10:27:16.567Z,1017.61
2017-01-05T10:28:27.880Z,1017.65
2017-01-05T10:29:38.770Z,1017.68
2017-01-05T10:30:50.086Z,1017.68
2017-01-05T10:32:01.464Z,1017.69
2017-01-05T10:33:12.785Z,1017.72
2017-01-05T10:34:24.102Z,1017.68
2017-01-05T10:35:34.580Z,1017.67
2017-01-05T10:36:45.909Z,1017.69
2017-01-05T10:37:57.278Z,1017.72
2017-01-05T10:39:07.747Z,1017.73
2017-01-05T10:40:19.068Z,1017.77
2017-01-05T10:41:29.961Z,1017.84
2017-01-05T10:42:41.274Z,1017.84
2017-01-05T10:43:52.220Z,1017.88
2017-01-05T10:45:03.578Z,1017.93
2017-01-05T10:46:14.482Z,1017.95
2017-01-05T10:47:25.379Z,1017.95
2017-01-05T10:48:36.700Z,1017.94
2017-01-05T10:49:47.222Z,1017.98
2017-01-05T10:50:58.115Z,1017.91
2017-01-05T10:52:09.437Z,1017.95
2017-01-05T10:53:20.337Z,1017.93
2017-01-05T10:54:31.235Z,1017.94
2017-01-05T10:55:42.616Z,1017.96
2017-01-05T10:56:53.514Z,1017.98
2017-01-05T10:58:04.414Z,1017.97
2017-01-05T10:59:15.734Z,1017.95
2017-01-05T11:00:27.056Z,1017.95
2017-01-05T11:01:37.721Z,1017.93
2017-01-05T11:02:49.042Z,1018
2017-01-05T11:04:00.360Z,1017.98
2017-01-05T11:05:11.677Z,1017.97
2017-01-05T11:06:22.578Z,1018.01
2017-01-05T11:07:33.531Z,1017.95
2017-01-05T11:08:44.854Z,1018
2017-01-05T11:09:56.182Z,1018.01
2017-01-05T11:11:07.077Z,1018.02
2017-01-05T11:12:18.396Z,1018
2017-01-05T11:13:29.769Z,1018.02
2017-01-05T11:14:40.674Z,1018.02
2017-01-05T11:15:51.991Z,1018
2017-01-05T11:17:02.888Z,1018.03
2017-01-05T11:18:13.789Z,1018.05
2017-01-05T11:19:25.158Z,1018.07
2017-01-05T11:20:36.508Z,1018.06
2017-01-05T11:21:47.397Z,1018.04
2017-01-05T11:22:58.310Z,1018.03
2017-01-05T11:24:09.207Z,1018.03
2017-01-05T11:25:20.580Z,1018
2017-01-05T11:26:31.906Z,1017.99
2017-01-05T11:27:42.802Z,1017.99
2017-01-05T11:28:53.700Z,1018.03
2017-01-05T11:30:05.025Z,1018
2017-01-05T11:31:15.970Z,1018.06
2017-01-05T11:32:27.296Z,1018.07
2017-01-05T11:33:38.193Z,1018.04
2017-01-05T11:34:49.094Z,1018.08
2017-01-05T11:36:00.423Z,1018.08
2017-01-05T11:37:11.788Z,1018.1
2017-01-05T11:38:23.105Z,1018.17
2017-01-05T11:39:34.432Z,1018.11
2017-01-05T11:40:45.328Z,1018.12
2017-01-05T11:41:56.649Z,1018.14
2017-01-05T11:43:07.594Z,1018.22
2017-01-05T11:44:18.495Z,1018.2
2017-01-05T11:45:28.965Z,1018.17
2017-01-05T11:46:40.282Z,1018.2
2017-01-05T11:47:51.183Z,1018.26
2017-01-05T11:49:02.552Z,1018.22
2017-01-05T11:50:13.445Z,1018.26
2017-01-05T11:51:24.330Z,1018.24
2017-01-05T11:52:35.651Z,1018.23
2017-01-05T11:53:46.977Z,1018.3
2017-01-05T11:54:58.374Z,1018.33
2017-01-05T11:56:09.263Z,1018.28
2017-01-05T11:57:20.168Z,1018.31
2017-01-05T11:58:31.489Z,1018.31
2017-01-05T11:59:42.811Z,1018.33
2017-01-05T12:00:54.191Z,1018.36
2017-01-05T12:02:05.521Z,1018.47
2017-01-05T12:03:16.842Z,1018.43
2017-01-05T12:04:27.743Z,1018.46
2017-01-05T12:05:39.057Z,1018.45
2017-01-05T12:06:50.430Z,1018.44
2017-01-05T12:08:01.751Z,1018.44
2017-01-05T12:09:13.068Z,1018.51
2017-01-05T12:10:23.961Z,1018.5
2017-01-05T12:11:35.282Z,1018.52
2017-01-05T12:12:46.651Z,1018.53
2017-01-05T12:13:57.541Z,1018.54
2017-01-05T12:15:08.446Z,1018.53
2017-01-05T12:16:19.367Z,1018.55
2017-01-05T12:17:30.688Z,1018.57
2017-01-05T12:18:41.629Z,1018.65
2017-01-05T12:19:52.951Z,1018.66
2017-01-05T12:21:03.844Z,1018.72
2017-01-05T12:22:15.193Z,1018.75
2017-01-05T12:23:26.082Z,1018.76
2017-01-05T12:24:37.461Z,1018.74
2017-01-05T12:25:48.784Z,1018.76
2017-01-05T12:26:59.673Z,1018.77
2017-01-05T12:28:10.995Z,1018.79
2017-01-05T12:29:22.316Z,1018.88
2017-01-05T12:30:33.685Z,1018.82
2017-01-05T12:31:45.006Z,1018.88
2017-01-05T12:32:55.447Z,1018.85
2017-01-05T12:34:06.348Z,1018.86
2017-01-05T12:35:17.662Z,1018.98
2017-01-05T12:36:28.603Z,1018.95
2017-01-05T12:37:39.924Z,1018.95
2017-01-05T12:38:50.821Z,1018.93
2017-01-05T12:40:01.718Z,1019.06
2017-01-05T12:41:13.047Z,1019.06
2017-01-05T12:42:24.421Z,1019.05
2017-01-05T12:43:35.311Z,1019.03
2017-01-05T12:44:46.631Z,1019.09
2017-01-05T12:45:57.968Z,1019.1
2017-01-05T12:47:08.429Z,1019.12
2017-01-05T12:48:19.797Z,1019.07
2017-01-05T12:49:30.696Z,1019.14
2017-01-05T12:50:42.017Z,1019.09
2017-01-05T12:51:53.338Z,1019.19
2017-01-05T12:53:04.235Z,1019.18
2017-01-05T12:54:15.177Z,1019.22
2017-01-05T12:55:26.502Z,1019.22
2017-01-05T12:56:37.399Z,1019.28
2017-01-05T12:57:48.712Z,1019.29
2017-01-05T12:58:59.173Z,1019.32
2017-01-05T13:00:10.574Z,1019.33
2017-01-05T13:01:21.468Z,1019.32
2017-01-05T13:02:32.785Z,1019.29
2017-01-05T13:03:43.238Z,1019.32
2017-01-05T13:04:54.559Z,1019.32
2017-01-05T13:06:05.504Z,1019.32
2017-01-05T13:07:16.389Z,1019.41
2017-01-05T13:08:27.279Z,1019.45
2017-01-05T13:09:38.172Z,1019.5
2017-01-05T13:10:49.061Z,1019.46
2017-01-05T13:12:00.442Z,1019.45
2017-01-05T13:13:11.761Z,1019.44
2017-01-05T13:14:22.652Z,1019.48
2017-01-05T13:15:33.981Z,1019.49
2017-01-05T13:16:45.302Z,1019.52
2017-01-05T13:17:56.247Z,1019.53
2017-01-05T13:19:07.141Z,1019.54
2017-01-05T13:20:17.597Z,1019.63
2017-01-05T13:21:28.486Z,1019.66
2017-01-05T13:22:38.951Z,1019.66
2017-01-05T13:23:49.916Z,1019.69
2017-01-05T13:25:01.229Z,1019.7
2017-01-05T13:26:12.122Z,1019.74
2017-01-05T13:27:23.451Z,1019.76
2017-01-05T13:28:34.345Z,1019.76
2017-01-05T13:29:45.502Z,1019.79
2017-01-05T13:30:56.823Z,1019.77
2017-01-05T13:32:07.716Z,1019.76
2017-01-05T13:33:18.613Z,1019.77
2017-01-05T13:34:29.934Z,1019.83
2017-01-05T13:35:40.879Z,1019.85
2017-01-05T13:36:52.196Z,1019.91
2017-01-05T13:38:03.091Z,1019.88
2017-01-05T13:39:13.119Z,1019.99
2017-01-05T13:40:24.014Z,1020
2017-01-05T13:41:35.385Z,1020.01
2017-01-05T13:42:46.702Z,1019.99
2017-01-05T13:43:56.736Z,1019.98
2017-01-05T13:45:08.057Z,1020.05
2017-01-05T13:46:18.954Z,1020.02
2017-01-05T13:47:30.323Z,1020.06
2017-01-05T13:48:41.224Z,1020.06
2017-01-05T13:49:52.113Z,1020.15
2017-01-05T13:51:03.443Z,1020.11
2017-01-05T13:52:14.768Z,1020.1
2017-01-05T13:53:25.717Z,1020.13
2017-01-05T13:54:37.037Z,1020.21
2017-01-05T13:55:47.935Z,1020.15
2017-01-05T13:56:58.828Z,1020.23
2017-01-05T13:58:10.154Z,1020.25
2017-01-05T13:59:21.527Z,1020.25
2017-01-05T14:00:32.424Z,1020.27
2017-01-05T14:01:43.749Z,1020.26
2017-01-05T14:02:55.070Z,1020.27
2017-01-05T14:04:05.963Z,1020.31
2017-01-05T14:05:17.328Z,1020.35
2017-01-05T14:06:27.797Z,1020.31
2017-01-05T14:07:39.114Z,1020.41
2017-01-05T14:08:50.011Z,1020.39
2017-01-05T14:10:00.901Z,1020.44
2017-01-05T14:11:11.421Z,1020.47
2017-01-05T14:12:22.313Z,1020.5
2017-01-05T14:13:33.664Z,1020.54
2017-01-05T14:14:44.993Z,1020.51
2017-01-05T14:15:56.314Z,1020.58
2017-01-05T14:17:07.687Z,1020.57
2017-01-05T14:18:18.592Z,1020.6
2017-01-05T14:19:29.932Z,1020.59
2017-01-05T14:20:41.251Z,1020.63
2017-01-05T14:21:52.572Z,1020.63
2017-01-05T14:23:03.089Z,1020.67